Terminal Aerodrome Forecast
Issued by NWS

Home | Current Version | Previous Version | Graphics & Text | Print | Product List | Glossary On
Versions: 1 2 3 4 5 6 7 8 9 10 11 12 13 14 15 16 17 18
519
FTUS43 KBIS 050428 AAA
TAFDIK
TAF AMD
KDIK 050428Z 0504/0524 19006KT P6SM OVC060
     FM050700 23008KT P6SM VCSH SCT035 OVC060
     FM050900 26010KT P6SM BKN060
     FM051300 29015G23KT P6SM OVC025
     FM051600 30017G25KT 5SM -SN OVC015
     FM051900 30021G30KT 3SM -SN BR OVC010=

USA.gov is the U.S. government's official web portal to all federal, state and local government web resources and services.